TRA23T EHRD-EGSS
Flight info
| Callsign | TRA23T |
|---|---|
| Flight time | 0h 46m |
| Altitude | 24000 |
| Route | ABNED L980 XAMAN |
| Aircraft | B738/M-SDE2E3FGHIRWXY/LB1 |
Departure
| Time | 2026-05-07 10:04 |
|---|---|
| Airport | Rotterdam The Hague Airport (EHRD) |
Arrival
| Time | 2026-05-07 10:51 |
|---|---|
| Airport | London Stansted Airport (EGSS) |
| Time | Latitude | Longitude | Altitude | Speed | Heading |
|---|---|---|---|---|---|
| 2026-05-07 09:34 | 51.95088 | 4.43431 | 0 ft | 0 kts | 327° |
| 2026-05-07 09:56 | 51.95089 | 4.43429 | 0 ft | 1 kts | 327° |
| 2026-05-07 09:57 | 51.95112 | 4.43412 | 1 ft | 7 kts | 351° |
| 2026-05-07 09:57 | 51.95159 | 4.43476 | 0 ft | 12 kts | 47° |
| 2026-05-07 09:57 | 51.95237 | 4.43433 | 0 ft | 15 kts | 301° |
| 2026-05-07 09:57 | 51.95237 | 4.43395 | 0 ft | 1 kts | 250° |
| 2026-05-07 09:58 | 51.95224 | 4.43356 | 0 ft | 7 kts | 239° |
| 2026-05-07 09:58 | 51.95200 | 4.43294 | 0 ft | 7 kts | 238° |
| 2026-05-07 09:58 | 51.95176 | 4.43229 | 0 ft | 7 kts | 239° |
| 2026-05-07 09:58 | 51.95146 | 4.43142 | 1 ft | 4 kts | 243° |
| 2026-05-07 09:59 | 51.95146 | 4.43140 | 1 ft | 0 kts | 243° |
| 2026-05-07 09:59 | 51.95140 | 4.43121 | 0 ft | 4 kts | 243° |
| 2026-05-07 09:59 | 51.95118 | 4.43052 | 0 ft | 9 kts | 244° |
| 2026-05-07 10:00 | 51.95111 | 4.43021 | 0 ft | 0 kts | 252° |
| 2026-05-07 10:00 | 51.95110 | 4.43014 | 0 ft | 1 kts | 258° |
| 2026-05-07 10:00 | 51.95110 | 4.42998 | 0 ft | 3 kts | 272° |
| 2026-05-07 10:00 | 51.95123 | 4.42942 | 1 ft | 7 kts | 315° |
| 2026-05-07 10:01 | 51.95182 | 4.42878 | 2 ft | 13 kts | 327° |
| 2026-05-07 10:01 | 51.95236 | 4.42895 | 2 ft | 0 kts | 56° |
| 2026-05-07 10:01 | 51.95238 | 4.42901 | 1 ft | 1 kts | 56° |
| 2026-05-07 10:01 | 51.95242 | 4.42909 | 1 ft | 1 kts | 56° |
| 2026-05-07 10:02 | 51.95247 | 4.42922 | 1 ft | 2 kts | 55° |
| 2026-05-07 10:02 | 51.95254 | 4.42938 | 1 ft | 2 kts | 57° |
| 2026-05-07 10:02 | 51.95263 | 4.42959 | 1 ft | 3 kts | 56° |
| 2026-05-07 10:02 | 51.95267 | 4.42970 | 1 ft | 0 kts | 56° |
| 2026-05-07 10:03 | 51.95268 | 4.42972 | 1 ft | 0 kts | 56° |
| 2026-05-07 10:03 | 51.95272 | 4.42983 | 1 ft | 3 kts | 56° |
| 2026-05-07 10:03 | 51.95362 | 4.43204 | 0 ft | 57 kts | 57° |
| 2026-05-07 10:03 | 51.95708 | 4.44075 | 1 ft | 123 kts | 57° |
| 2026-05-07 10:04 | 51.96243 | 4.45446 | 219 ft | 155 kts | 57° |
| 2026-05-07 10:04 | 51.96825 | 4.46996 | 855 ft | 160 kts | 60° |
| 2026-05-07 10:04 | 51.97392 | 4.48585 | 1609 ft | 165 kts | 60° |
| 2026-05-07 10:04 | 51.98031 | 4.50215 | 2153 ft | 180 kts | 49° |
| 2026-05-07 10:05 | 51.99049 | 4.51601 | 2637 ft | 201 kts | 28° |
| 2026-05-07 10:05 | 52.00436 | 4.52203 | 3132 ft | 214 kts | 0° |
| 2026-05-07 10:05 | 52.01877 | 4.51793 | 3661 ft | 220 kts | 336° |
| 2026-05-07 10:05 | 52.03060 | 4.50158 | 4142 ft | 231 kts | 305° |
| 2026-05-07 10:06 | 52.03604 | 4.47721 | 4830 ft | 230 kts | 276° |
| 2026-05-07 10:06 | 52.03459 | 4.45108 | 5094 ft | 238 kts | 251° |
| 2026-05-07 10:06 | 52.02538 | 4.42867 | 5045 ft | 244 kts | 220° |
| 2026-05-07 10:06 | 52.01142 | 4.41395 | 5212 ft | 236 kts | 210° |
| 2026-05-07 10:07 | 51.99738 | 4.39957 | 5216 ft | 242 kts | 215° |
| 2026-05-07 10:07 | 51.98577 | 4.37749 | 4934 ft | 276 kts | 248° |
| 2026-05-07 10:07 | 51.98167 | 4.34767 | 5289 ft | 266 kts | 263° |
| 2026-05-07 10:07 | 51.97989 | 4.32603 | 5826 ft | 267 kts | 262° |
| 2026-05-07 10:08 | 51.97821 | 4.30640 | 6343 ft | 269 kts | 262° |
| 2026-05-07 10:08 | 51.97553 | 4.27617 | 7088 ft | 273 kts | 261° |
| 2026-05-07 10:08 | 51.97263 | 4.24559 | 7835 ft | 276 kts | 261° |
| 2026-05-07 10:08 | 51.96954 | 4.21460 | 8649 ft | 279 kts | 260° |
| 2026-05-07 10:09 | 51.96629 | 4.18328 | 9444 ft | 283 kts | 260° |
| 2026-05-07 10:09 | 51.96293 | 4.15175 | 10283 ft | 286 kts | 260° |
| 2026-05-07 10:09 | 51.95937 | 4.11901 | 10645 ft | 306 kts | 259° |
| 2026-05-07 10:09 | 51.95553 | 4.08414 | 10837 ft | 330 kts | 259° |
| 2026-05-07 10:10 | 51.95133 | 4.04639 | 11145 ft | 348 kts | 259° |
| 2026-05-07 10:10 | 51.94695 | 4.00730 | 11728 ft | 356 kts | 259° |
| 2026-05-07 10:10 | 51.94247 | 3.96774 | 12599 ft | 356 kts | 260° |
| 2026-05-07 10:10 | 51.93796 | 3.92801 | 13355 ft | 361 kts | 260° |
| 2026-05-07 10:11 | 51.93337 | 3.88778 | 14078 ft | 366 kts | 260° |
| 2026-05-07 10:11 | 51.92868 | 3.84689 | 14759 ft | 370 kts | 260° |
| 2026-05-07 10:11 | 51.92396 | 3.80575 | 15483 ft | 374 kts | 259° |
| 2026-05-07 10:11 | 51.91916 | 3.76416 | 16237 ft | 377 kts | 259° |
| 2026-05-07 10:12 | 51.91432 | 3.72235 | 16968 ft | 380 kts | 259° |
| 2026-05-07 10:12 | 51.90940 | 3.67996 | 17642 ft | 385 kts | 259° |
| 2026-05-07 10:12 | 51.90441 | 3.63708 | 18324 ft | 390 kts | 259° |
| 2026-05-07 10:12 | 51.89934 | 3.59374 | 18935 ft | 393 kts | 259° |
| 2026-05-07 10:13 | 51.89424 | 3.55021 | 19579 ft | 395 kts | 259° |
| 2026-05-07 10:13 | 51.88908 | 3.50636 | 20194 ft | 399 kts | 259° |
| 2026-05-07 10:13 | 51.88384 | 3.46199 | 20725 ft | 404 kts | 259° |
| 2026-05-07 10:13 | 51.87853 | 3.41715 | 21303 ft | 407 kts | 259° |
| 2026-05-07 10:14 | 51.87317 | 3.37210 | 21931 ft | 409 kts | 259° |
| 2026-05-07 10:14 | 51.86777 | 3.32676 | 22510 ft | 412 kts | 259° |
| 2026-05-07 10:14 | 51.86231 | 3.28107 | 23001 ft | 417 kts | 259° |
| 2026-05-07 10:14 | 51.85676 | 3.23477 | 23524 ft | 420 kts | 259° |
| 2026-05-07 10:15 | 51.85307 | 3.20414 | 23889 ft | 418 kts | 259° |
| 2026-05-07 10:15 | 51.84775 | 3.15775 | 24063 ft | 419 kts | 261° |
| 2026-05-07 10:15 | 51.84403 | 3.11066 | 24093 ft | 425 kts | 264° |
| 2026-05-07 10:15 | 51.84025 | 3.04715 | 24105 ft | 429 kts | 265° |
| 2026-05-07 10:16 | 51.83751 | 2.99891 | 24101 ft | 431 kts | 264° |
| 2026-05-07 10:16 | 51.83559 | 2.96625 | 24101 ft | 431 kts | 264° |
| 2026-05-07 10:16 | 51.83265 | 2.91860 | 24093 ft | 431 kts | 264° |
| 2026-05-07 10:16 | 51.82953 | 2.87044 | 24087 ft | 431 kts | 264° |
| 2026-05-07 10:17 | 51.82635 | 2.82248 | 23937 ft | 426 kts | 263° |
| 2026-05-07 10:17 | 51.82319 | 2.77549 | 23686 ft | 413 kts | 263° |
| 2026-05-07 10:17 | 51.82012 | 2.72994 | 23406 ft | 406 kts | 263° |
| 2026-05-07 10:17 | 51.81705 | 2.68476 | 23116 ft | 402 kts | 263° |
| 2026-05-07 10:18 | 51.81400 | 2.64024 | 22834 ft | 397 kts | 263° |
| 2026-05-07 10:18 | 51.81094 | 2.59592 | 22577 ft | 395 kts | 263° |
| 2026-05-07 10:18 | 51.80787 | 2.55177 | 22303 ft | 394 kts | 263° |
| 2026-05-07 10:18 | 51.80479 | 2.50755 | 22144 ft | 401 kts | 263° |
| 2026-05-07 10:19 | 51.80164 | 2.46272 | 22099 ft | 399 kts | 263° |
| 2026-05-07 10:19 | 51.79852 | 2.41842 | 22091 ft | 393 kts | 263° |
| 2026-05-07 10:19 | 51.79548 | 2.37528 | 22090 ft | 392 kts | 263° |
| 2026-05-07 10:19 | 51.79236 | 2.33130 | 22102 ft | 395 kts | 263° |
| 2026-05-07 10:20 | 51.78920 | 2.28718 | 22095 ft | 397 kts | 263° |
| 2026-05-07 10:20 | 51.78708 | 2.24270 | 22071 ft | 398 kts | 273° |
| 2026-05-07 10:20 | 51.79255 | 2.19908 | 21764 ft | 398 kts | 291° |
| 2026-05-07 10:20 | 51.80534 | 2.15987 | 21334 ft | 391 kts | 298° |
| 2026-05-07 10:21 | 51.81861 | 2.12166 | 20839 ft | 387 kts | 298° |
| 2026-05-07 10:21 | 51.83153 | 2.08386 | 20395 ft | 382 kts | 298° |
| 2026-05-07 10:21 | 51.84421 | 2.04626 | 19953 ft | 379 kts | 297° |
| 2026-05-07 10:21 | 51.85673 | 2.00885 | 19518 ft | 376 kts | 297° |
| 2026-05-07 10:22 | 51.86914 | 1.97162 | 19090 ft | 374 kts | 298° |
| 2026-05-07 10:22 | 51.88147 | 1.93454 | 18669 ft | 373 kts | 297° |
| 2026-05-07 10:22 | 51.89377 | 1.89752 | 18240 ft | 376 kts | 297° |
| 2026-05-07 10:22 | 51.90616 | 1.86014 | 18122 ft | 373 kts | 297° |
| 2026-05-07 10:23 | 51.91818 | 1.82385 | 18088 ft | 359 kts | 297° |
| 2026-05-07 10:23 | 51.92973 | 1.78892 | 18071 ft | 343 kts | 297° |
| 2026-05-07 10:23 | 51.94071 | 1.75568 | 18079 ft | 328 kts | 297° |
| 2026-05-07 10:23 | 51.95122 | 1.72384 | 18076 ft | 313 kts | 297° |
| 2026-05-07 10:24 | 51.96116 | 1.69362 | 18077 ft | 300 kts | 296° |
| 2026-05-07 10:24 | 51.96775 | 1.66252 | 18079 ft | 285 kts | 275° |
| 2026-05-07 10:24 | 51.96926 | 1.63091 | 17719 ft | 285 kts | 274° |
| 2026-05-07 10:24 | 51.97072 | 1.59847 | 17209 ft | 291 kts | 274° |
| 2026-05-07 10:25 | 51.97223 | 1.56545 | 16688 ft | 296 kts | 274° |
| 2026-05-07 10:25 | 51.97379 | 1.53193 | 16183 ft | 300 kts | 274° |
| 2026-05-07 10:25 | 51.97540 | 1.49787 | 15682 ft | 305 kts | 274° |
| 2026-05-07 10:25 | 51.97704 | 1.46337 | 15187 ft | 309 kts | 274° |
| 2026-05-07 10:26 | 51.97872 | 1.42849 | 14706 ft | 312 kts | 274° |
| 2026-05-07 10:26 | 51.98041 | 1.39321 | 14215 ft | 315 kts | 274° |
| 2026-05-07 10:26 | 51.98212 | 1.35756 | 13715 ft | 318 kts | 275° |
| 2026-05-07 10:26 | 51.98381 | 1.32217 | 13187 ft | 320 kts | 275° |
| 2026-05-07 10:27 | 51.98552 | 1.28610 | 12660 ft | 322 kts | 275° |
| 2026-05-07 10:27 | 51.98723 | 1.24985 | 12148 ft | 323 kts | 275° |
| 2026-05-07 10:27 | 51.98895 | 1.21340 | 11636 ft | 324 kts | 275° |
| 2026-05-07 10:27 | 51.99064 | 1.17697 | 11219 ft | 322 kts | 275° |
| 2026-05-07 10:28 | 51.99229 | 1.14135 | 11116 ft | 310 kts | 275° |
| 2026-05-07 10:28 | 51.99387 | 1.10710 | 11083 ft | 297 kts | 275° |
| 2026-05-07 10:28 | 51.99537 | 1.07433 | 10972 ft | 287 kts | 275° |
| 2026-05-07 10:28 | 51.99682 | 1.04245 | 10798 ft | 280 kts | 275° |
| 2026-05-07 10:29 | 51.99823 | 1.01123 | 10631 ft | 274 kts | 275° |
| 2026-05-07 10:29 | 51.99961 | 0.98076 | 10461 ft | 268 kts | 275° |
| 2026-05-07 10:29 | 52.00094 | 0.95093 | 10299 ft | 262 kts | 275° |
| 2026-05-07 10:30 | 52.00351 | 0.89302 | 9967 ft | 252 kts | 275° |
| 2026-05-07 10:30 | 52.00475 | 0.86493 | 9784 ft | 247 kts | 275° |
| 2026-05-07 10:30 | 52.00596 | 0.83740 | 9601 ft | 242 kts | 274° |
| 2026-05-07 10:30 | 52.00714 | 0.81032 | 9420 ft | 238 kts | 274° |
| 2026-05-07 10:31 | 52.00830 | 0.78378 | 9235 ft | 234 kts | 274° |
| 2026-05-07 10:31 | 52.00942 | 0.75759 | 9127 ft | 232 kts | 274° |
| 2026-05-07 10:31 | 52.01053 | 0.73188 | 9099 ft | 230 kts | 274° |
| 2026-05-07 10:31 | 52.01164 | 0.70612 | 9090 ft | 228 kts | 274° |
| 2026-05-07 10:32 | 52.01273 | 0.68035 | 9101 ft | 230 kts | 274° |
| 2026-05-07 10:32 | 52.01383 | 0.65416 | 9110 ft | 234 kts | 274° |
| 2026-05-07 10:32 | 52.01494 | 0.62777 | 9098 ft | 233 kts | 273° |
| 2026-05-07 10:32 | 52.01602 | 0.60157 | 9098 ft | 232 kts | 272° |
| 2026-05-07 10:33 | 52.01340 | 0.57613 | 9074 ft | 229 kts | 238° |
| 2026-05-07 10:33 | 52.00177 | 0.55946 | 9089 ft | 227 kts | 199° |
| 2026-05-07 10:33 | 51.98606 | 0.55801 | 9123 ft | 231 kts | 172° |
| 2026-05-07 10:33 | 51.96999 | 0.56207 | 9104 ft | 234 kts | 171° |
| 2026-05-07 10:34 | 51.95395 | 0.56616 | 9088 ft | 232 kts | 171° |
| 2026-05-07 10:34 | 51.93803 | 0.57030 | 9082 ft | 231 kts | 171° |
| 2026-05-07 10:34 | 51.92225 | 0.57443 | 9082 ft | 229 kts | 171° |
| 2026-05-07 10:34 | 51.90661 | 0.57843 | 9084 ft | 227 kts | 174° |
| 2026-05-07 10:35 | 51.89137 | 0.57435 | 9086 ft | 225 kts | 212° |
| 2026-05-07 10:35 | 51.88133 | 0.55542 | 9104 ft | 232 kts | 251° |
| 2026-05-07 10:35 | 51.88088 | 0.52958 | 9103 ft | 235 kts | 289° |
| 2026-05-07 10:35 | 51.88853 | 0.50638 | 9107 ft | 235 kts | 301° |
| 2026-05-07 10:36 | 51.89700 | 0.48368 | 9107 ft | 236 kts | 300° |
| 2026-05-07 10:36 | 51.90563 | 0.46094 | 9046 ft | 239 kts | 301° |
| 2026-05-07 10:36 | 51.91456 | 0.43761 | 8743 ft | 245 kts | 301° |
| 2026-05-07 10:36 | 51.92366 | 0.41405 | 8448 ft | 247 kts | 301° |
| 2026-05-07 10:37 | 51.93284 | 0.39046 | 8176 ft | 248 kts | 301° |
| 2026-05-07 10:37 | 51.94211 | 0.36680 | 7895 ft | 249 kts | 301° |
| 2026-05-07 10:37 | 51.95135 | 0.34336 | 7621 ft | 250 kts | 301° |
| 2026-05-07 10:37 | 51.96077 | 0.31962 | 7342 ft | 251 kts | 301° |
| 2026-05-07 10:38 | 51.97030 | 0.29578 | 7119 ft | 250 kts | 301° |
| 2026-05-07 10:38 | 51.97966 | 0.27256 | 7063 ft | 242 kts | 301° |
| 2026-05-07 10:38 | 51.98879 | 0.25004 | 6989 ft | 234 kts | 301° |
| 2026-05-07 10:38 | 51.99722 | 0.22805 | 6908 ft | 224 kts | 289° |
| 2026-05-07 10:39 | 51.99825 | 0.20435 | 6789 ft | 206 kts | 246° |
| 2026-05-07 10:39 | 51.99015 | 0.18642 | 6616 ft | 196 kts | 220° |
| 2026-05-07 10:39 | 51.98028 | 0.17115 | 6409 ft | 196 kts | 221° |
| 2026-05-07 10:39 | 51.97044 | 0.15579 | 6170 ft | 196 kts | 221° |
| 2026-05-07 10:40 | 51.96060 | 0.14045 | 6119 ft | 196 kts | 221° |
| 2026-05-07 10:40 | 51.95091 | 0.12538 | 6114 ft | 195 kts | 221° |
| 2026-05-07 10:40 | 51.94106 | 0.11009 | 6107 ft | 196 kts | 221° |
| 2026-05-07 10:40 | 51.93120 | 0.09478 | 6119 ft | 197 kts | 221° |
| 2026-05-07 10:41 | 51.92126 | 0.07938 | 6115 ft | 198 kts | 221° |
| 2026-05-07 10:41 | 51.91123 | 0.06387 | 5913 ft | 205 kts | 221° |
| 2026-05-07 10:41 | 51.90058 | 0.04753 | 5415 ft | 214 kts | 221° |
| 2026-05-07 10:41 | 51.88960 | 0.03081 | 4925 ft | 220 kts | 221° |
| 2026-05-07 10:42 | 51.87831 | 0.01372 | 4411 ft | 223 kts | 221° |
| 2026-05-07 10:42 | 51.86688 | -0.00349 | 3872 ft | 226 kts | 221° |
| 2026-05-07 10:42 | 51.85526 | -0.02093 | 3356 ft | 228 kts | 221° |
| 2026-05-07 10:42 | 51.84360 | -0.03844 | 2839 ft | 228 kts | 221° |
| 2026-05-07 10:43 | 51.83227 | -0.05555 | 2455 ft | 218 kts | 221° |
| 2026-05-07 10:43 | 51.82172 | -0.07146 | 2163 ft | 197 kts | 221° |
| 2026-05-07 10:43 | 51.81197 | -0.08624 | 2029 ft | 196 kts | 221° |
| 2026-05-07 10:43 | 51.80187 | -0.10123 | 1978 ft | 195 kts | 221° |
| 2026-05-07 10:44 | 51.79200 | -0.11570 | 1959 ft | 190 kts | 221° |
| 2026-05-07 10:44 | 51.78215 | -0.12996 | 1960 ft | 189 kts | 214° |
| 2026-05-07 10:44 | 51.76983 | -0.13498 | 1976 ft | 188 kts | 168° |
| 2026-05-07 10:44 | 51.75900 | -0.12364 | 1994 ft | 190 kts | 130° |
| 2026-05-07 10:45 | 51.75056 | -0.10705 | 1979 ft | 191 kts | 130° |
| 2026-05-07 10:45 | 51.74568 | -0.08770 | 1970 ft | 191 kts | 89° |
| 2026-05-07 10:45 | 51.74883 | -0.06660 | 1978 ft | 196 kts | 76° |
| 2026-05-07 10:45 | 51.75261 | -0.04549 | 1973 ft | 196 kts | 76° |
| 2026-05-07 10:46 | 51.75643 | -0.02428 | 1977 ft | 197 kts | 76° |
| 2026-05-07 10:46 | 51.76022 | -0.00301 | 1957 ft | 197 kts | 76° |
| 2026-05-07 10:46 | 51.76398 | 0.01829 | 1987 ft | 197 kts | 77° |
| 2026-05-07 10:46 | 51.76777 | 0.03948 | 1989 ft | 195 kts | 76° |
| 2026-05-07 10:47 | 51.77172 | 0.06043 | 1981 ft | 194 kts | 71° |
| 2026-05-07 10:47 | 51.77998 | 0.07730 | 2014 ft | 193 kts | 40° |
| 2026-05-07 10:47 | 51.79004 | 0.09176 | 2000 ft | 193 kts | 45° |
| 2026-05-07 10:47 | 51.79947 | 0.10639 | 2054 ft | 185 kts | 45° |
| 2026-05-07 10:48 | 51.80884 | 0.12049 | 2046 ft | 182 kts | 45° |
| 2026-05-07 10:48 | 51.81780 | 0.13388 | 1917 ft | 172 kts | 44° |
| 2026-05-07 10:48 | 51.82611 | 0.14641 | 1787 ft | 158 kts | 46° |
| 2026-05-07 10:48 | 51.83415 | 0.15858 | 1492 ft | 156 kts | 45° |
| 2026-05-07 10:49 | 51.84195 | 0.17042 | 1312 ft | 152 kts | 44° |
| 2026-05-07 10:49 | 51.84962 | 0.18182 | 1094 ft | 150 kts | 44° |
| 2026-05-07 10:49 | 51.85719 | 0.19327 | 883 ft | 146 kts | 44° |
| 2026-05-07 10:49 | 51.86466 | 0.20436 | 684 ft | 146 kts | 43° |
| 2026-05-07 10:50 | 51.87208 | 0.21549 | 501 ft | 144 kts | 45° |
| 2026-05-07 10:50 | 51.87940 | 0.22642 | 349 ft | 144 kts | 43° |
| 2026-05-07 10:50 | 51.88593 | 0.23620 | 339 ft | 106 kts | 43° |
| 2026-05-07 10:50 | 51.89016 | 0.24270 | 349 ft | 54 kts | 51° |
| 2026-05-07 10:51 | 51.89127 | 0.24644 | 347 ft | 10 kts | 67° |
| 2026-05-07 10:51 | 51.89152 | 0.24743 | 346 ft | 9 kts | 68° |
| 2026-05-07 10:51 | 51.89168 | 0.24842 | 342 ft | 9 kts | 93° |
| 2026-05-07 10:51 | 51.88025 | 0.22769 | 332 ft | 0 kts | 44° |